KHKA/HKA METAR and TAF weather

Enter ICAO airport designator
Station Type Date Time Source
KHKA METAR 2021/05/10 01:53 UTC NOAA

KHKA 100153Z AUTO 02018G24KT 10SM OVC019 12/08 A2994 RMK AO2 PK WND 02028/0111 SLP137 T01220083 $


Station Type Date Time Source
KHKA Decoded METAR 2021/05/10 01:53 UTC NOAA

BLYTHEVILLE MUNICIPAL AIRPORT , AR, United States (KHKA) 35-56N 89-50W 78M
May 09, 2021 - 09:53 PM EDT / 2021.05.10 0153 UTC
Wind: from the NNE (020 degrees) at 21 MPH (18 KT) gusting to 28 MPH (24 KT):0
Visibility: 10 mile(s):0
Sky conditions: overcast
Temperature: 54.0 F (12.2 C)
Dew Point: 46.9 F (8.3 C)
Relative Humidity: 77%
Pressure (altimeter): 29.94 in. Hg (1013 hPa)
ob: KHKA 100153Z AUTO 02018G24KT 10SM OVC019 12/08 A2994 RMK AO2 PK WND 02028/0111 SLP137 T01220083
cycle: 2

Station Type Date Time Source
KHKA TAF UTC NOAA

Error!

Example: see airport list